Terminal Aerodrome Forecast
Issued by NWS

Home | Current Version | Previous Version | Graphics & Text | Print | Product List | Glossary On
Versions: 1 2 3 4 5 6 7 8 9 10 11 12
000
FTUS45 KGGW 201720
TAFOLF
TAF
KOLF 201720Z 2018/2118 30008KT P6SM FEW150
     FM210300 32004KT P6SM FEW110=

USA.gov is the U.S. government's official web portal to all federal, state and local government web resources and services.